createdAt,value
2022-12-08T00:01:10.133Z,98737.03
2022-12-08T00:02:11.977Z,98731.31
2022-12-08T00:03:13.966Z,98737.50
2022-12-08T00:04:15.568Z,98741.88
2022-12-08T00:05:17.150Z,98739.16
2022-12-08T00:06:23.475Z,98745.41
2022-12-08T00:07:25.423Z,98741.03
2022-12-08T00:08:27.000Z,98743.91
2022-12-08T00:09:32.043Z,98741.22
2022-12-08T00:10:51.788Z,98750.59
2022-12-08T00:11:58.867Z,98744.94
2022-12-08T00:13:00.352Z,98747.53
2022-12-08T00:14:01.977Z,98743.34
2022-12-08T00:15:04.033Z,98743.28
2022-12-08T00:16:05.993Z,98741.50
2022-12-08T00:17:09.793Z,98745.69
2022-12-08T00:18:11.572Z,98752.81
2022-12-08T00:19:13.089Z,98740.94
2022-12-08T00:20:14.702Z,98748.63
2022-12-08T00:21:16.239Z,98747.06
2022-12-08T00:22:17.771Z,98749.66
2022-12-08T00:23:19.313Z,98751.22
2022-12-08T00:24:22.119Z,98749.81
2022-12-08T00:25:23.631Z,98749.94
2022-12-08T00:26:25.197Z,98751.84
2022-12-08T00:27:26.708Z,98752.41
2022-12-08T00:28:28.242Z,98757.34
2022-12-08T00:29:29.889Z,98748.88
2022-12-08T00:30:31.438Z,98758.44
2022-12-08T00:31:33.077Z,98747.34
2022-12-08T00:32:34.754Z,98752.59
2022-12-08T00:33:36.402Z,98747.34
2022-12-08T00:34:38.201Z,98751.94
2022-12-08T00:35:43.065Z,98758.72
2022-12-08T00:36:45.727Z,98753.44
2022-12-08T00:37:47.247Z,98753.34
2022-12-08T00:38:48.788Z,98751.69
2022-12-08T00:39:50.294Z,98757.72
2022-12-08T00:40:51.804Z,98753.44
2022-12-08T00:41:53.331Z,98753.16
2022-12-08T00:42:54.975Z,98754.28
2022-12-08T00:43:56.539Z,98752.53
2022-12-08T00:44:58.039Z,98759.66
2022-12-08T00:45:59.626Z,98757.88
2022-12-08T00:47:01.260Z,98765.50
2022-12-08T00:48:02.769Z,98760.75
2022-12-08T00:49:05.831Z,98766.78
2022-12-08T00:50:08.155Z,98772.22
2022-12-08T00:51:09.693Z,98771.41
2022-12-08T00:52:11.390Z,98771.22
2022-12-08T00:53:12.940Z,98779.25
2022-12-08T00:54:14.725Z,98775.81
2022-12-08T00:55:16.359Z,98776.13
2022-12-08T00:56:17.846Z,98774.44
2022-12-08T00:57:19.339Z,98782.97
2022-12-08T00:58:20.888Z,98779.72
2022-12-08T00:59:22.393Z,98785.56
2022-12-08T01:00:23.952Z,98779.44
2022-12-08T01:01:25.831Z,98781.84
2022-12-08T01:02:27.370Z,98778.41
2022-12-08T01:03:28.906Z,98779.19
2022-12-08T01:04:30.463Z,98782.88
2022-12-08T01:05:31.998Z,98782.03
2022-12-08T01:06:35.635Z,98782.88
2022-12-08T01:07:37.128Z,98782.03
2022-12-08T01:08:40.076Z,98780.19
2022-12-08T01:09:41.690Z,98786.97
2022-12-08T01:10:43.226Z,98786.88
2022-12-08T01:11:45.379Z,98789.38
2022-12-08T01:12:46.904Z,98786.13
2022-12-08T01:13:48.468Z,98783.22
2022-12-08T01:14:50.033Z,98785.81
2022-12-08T01:15:51.554Z,98778.13
2022-12-08T01:16:53.202Z,98784.97
2022-12-08T01:17:55.153Z,98777.13
2022-12-08T01:18:58.662Z,98780.53
2022-12-08T01:20:00.273Z,98781.31
2022-12-08T01:21:08.201Z,98785.56
2022-12-08T01:22:09.747Z,98787.13
2022-12-08T01:23:11.257Z,98789.09
2022-12-08T01:24:15.314Z,98791.69
2022-12-08T01:25:16.854Z,98790.09
2022-12-08T01:26:19.554Z,98790.00
2022-12-08T01:27:21.088Z,98794.59
2022-12-08T01:28:22.634Z,98790.28
2022-12-08T01:29:24.209Z,98790.59
2022-12-08T01:30:25.759Z,98791.47
2022-12-08T01:31:27.493Z,98792.47
2022-12-08T01:32:29.104Z,98794.97
2022-12-08T01:33:31.705Z,98791.59
2022-12-08T01:34:33.216Z,98790.72
2022-12-08T01:35:34.766Z,98784.84
2022-12-08T01:36:37.163Z,98789.13
2022-12-08T01:37:38.711Z,98785.69
2022-12-08T01:38:40.256Z,98786.53
2022-12-08T01:39:41.849Z,98780.59
2022-12-08T01:40:43.402Z,98777.22
2022-12-08T01:41:47.035Z,98781.59
2022-12-08T01:42:49.844Z,98781.78
2022-12-08T01:43:57.104Z,98779.53
2022-12-08T01:45:05.305Z,98778.59
2022-12-08T01:46:06.855Z,98774.94
2022-12-08T01:47:08.751Z,98775.94
2022-12-08T01:48:16.396Z,98775.66
2022-12-08T01:49:22.774Z,98773.56
2022-12-08T01:50:24.491Z,98773.63
2022-12-08T01:51:26.601Z,98776.16
2022-12-08T01:52:40.652Z,98781.16
2022-12-08T01:53:42.330Z,98779.41
2022-12-08T01:54:58.177Z,98776.16
2022-12-08T01:56:06.742Z,98775.72
2022-12-08T01:57:12.038Z,98779.97
2022-12-08T01:58:20.550Z,98779.13
2022-12-08T01:59:23.878Z,98775.63
2022-12-08T02:00:25.523Z,98772.38
2022-12-08T02:01:27.264Z,98779.31
2022-12-08T02:02:36.216Z,98771.44
2022-12-08T02:03:49.885Z,98775.44
2022-12-08T02:04:51.381Z,98773.84
2022-12-08T02:05:53.182Z,98766.00
2022-12-08T02:06:54.760Z,98770.25
2022-12-08T02:07:57.976Z,98771.66
2022-12-08T02:09:01.385Z,98773.34
2022-12-08T02:10:04.052Z,98770.38
2022-12-08T02:11:08.903Z,98773.63
2022-12-08T02:12:11.237Z,98768.91
2022-12-08T02:13:16.586Z,98772.25
2022-12-08T02:14:18.389Z,98772.81
2022-12-08T02:15:24.744Z,98772.81
2022-12-08T02:16:53.882Z,98769.22
2022-12-08T02:18:16.148Z,98775.16
2022-12-08T02:19:42.212Z,98766.34
2022-12-08T02:20:52.574Z,98770.44
2022-12-08T02:22:04.809Z,98759.94
2022-12-08T02:23:06.231Z,98768.56
2022-12-08T02:24:07.582Z,98761.06
2022-12-08T02:25:29.520Z,98758.72
2022-12-08T02:26:52.401Z,98757.44
2022-12-08T02:28:07.510Z,98761.22
2022-12-08T02:29:19.818Z,98755.66
2022-12-08T02:30:33.106Z,98756.75
2022-12-08T02:32:05.646Z,98755.44
2022-12-08T02:33:07.028Z,98750.16
2022-12-08T02:34:08.483Z,98754.78
2022-12-08T02:35:28.530Z,98750.69
2022-12-08T02:36:45.135Z,98750.09
2022-12-08T02:38:04.666Z,98749.63
2022-12-08T02:39:24.730Z,98751.22
2022-12-08T02:41:07.230Z,98751.16
2022-12-08T02:42:21.565Z,98751.97
2022-12-08T02:43:35.819Z,98753.00
2022-12-08T02:44:41.489Z,98745.22
2022-12-08T02:45:53.488Z,98749.22
2022-12-08T02:47:07.042Z,98745.97
2022-12-08T02:48:10.100Z,98749.47
2022-12-08T02:49:11.955Z,98742.78
2022-12-08T02:50:14.701Z,98748.16
2022-12-08T02:51:16.283Z,98746.28
2022-12-08T02:52:17.737Z,98744.31
2022-12-08T02:53:19.115Z,98747.00
2022-12-08T02:54:20.626Z,98748.28
2022-12-08T02:55:29.418Z,98742.31
2022-12-08T02:56:54.950Z,98734.72
2022-12-08T02:58:14.550Z,98747.13
2022-12-08T02:59:25.245Z,98740.09
2022-12-08T03:00:33.855Z,98745.09
2022-12-08T03:02:05.415Z,98745.19
2022-12-08T03:03:39.306Z,98752.38
2022-12-08T03:04:43.580Z,98749.91
2022-12-08T03:06:05.582Z,98748.97
2022-12-08T03:07:14.950Z,98742.69
2022-12-08T03:08:41.798Z,98744.53
2022-12-08T03:09:51.357Z,98741.84
2022-12-08T03:11:14.472Z,98740.16
2022-12-08T03:12:25.049Z,98740.28
2022-12-08T03:13:34.501Z,98736.84
2022-12-08T03:14:38.239Z,98737.00
2022-12-08T03:15:42.159Z,98745.78
2022-12-08T03:16:48.583Z,98741.19
2022-12-08T03:17:56.825Z,98741.75
2022-12-08T03:19:06.663Z,98740.84
2022-12-08T03:20:13.227Z,98745.28
2022-12-08T03:21:18.031Z,98744.28
2022-12-08T03:22:24.515Z,98738.06
2022-12-08T03:23:26.601Z,98741.69
2022-12-08T03:24:31.017Z,98739.91
2022-12-08T03:25:36.532Z,98742.50
2022-12-08T03:26:50.411Z,98740.75
2022-12-08T03:27:53.394Z,98737.69
2022-12-08T03:28:55.099Z,98742.88
2022-12-08T03:29:58.031Z,98739.34
2022-12-08T03:31:06.105Z,98739.25
2022-12-08T03:32:28.432Z,98740.34
2022-12-08T03:33:35.442Z,98741.94
2022-12-08T03:34:42.156Z,98739.34
2022-12-08T03:35:44.548Z,98739.34
2022-12-08T03:36:46.068Z,98740.28
2022-12-08T03:37:47.575Z,98739.44
2022-12-08T03:38:52.023Z,98739.53
2022-12-08T03:39:53.531Z,98737.84
2022-12-08T03:40:55.021Z,98748.88
2022-12-08T03:41:56.524Z,98746.47
2022-12-08T03:42:58.025Z,98742.75
2022-12-08T03:43:59.559Z,98741.03
2022-12-08T03:45:01.085Z,98753.13
2022-12-08T03:46:02.968Z,98750.72
2022-12-08T03:47:04.658Z,98748.97
2022-12-08T03:48:06.277Z,98750.53
2022-12-08T03:49:07.769Z,98750.28
2022-12-08T03:50:09.643Z,98745.09
2022-12-08T03:51:11.745Z,98751.03
2022-12-08T03:52:13.220Z,98742.50
2022-12-08T03:53:14.823Z,98741.69
2022-12-08T03:54:16.323Z,98740.03
2022-12-08T03:55:18.289Z,98742.50
2022-12-08T03:56:34.736Z,98743.19
2022-12-08T03:57:36.377Z,98744.91
2022-12-08T03:58:37.881Z,98744.09
2022-12-08T03:59:39.560Z,98746.50
2022-12-08T04:00:41.056Z,98749.03
2022-12-08T04:01:42.625Z,98745.69
2022-12-08T04:02:44.241Z,98744.91
2022-12-08T04:03:45.900Z,98740.94
2022-12-08T04:04:47.426Z,98740.16
2022-12-08T04:05:48.958Z,98739.34
2022-12-08T04:06:50.498Z,98734.91
2022-12-08T04:07:52.085Z,98742.44
2022-12-08T04:08:53.628Z,98733.66
2022-12-08T04:09:55.167Z,98730.03
2022-12-08T04:10:56.677Z,98736.88
2022-12-08T04:11:58.210Z,98733.22
2022-12-08T04:12:59.710Z,98732.63
2022-12-08T04:14:01.282Z,98736.41
2022-12-08T04:15:02.938Z,98732.06
2022-12-08T04:16:05.192Z,98734.91
2022-12-08T04:17:06.826Z,98734.91
2022-12-08T04:18:08.357Z,98733.06
2022-12-08T04:19:09.869Z,98737.13
2022-12-08T04:20:11.639Z,98736.31
2022-12-08T04:21:13.902Z,98736.50
2022-12-08T04:22:15.398Z,98729.81
2022-12-08T04:23:16.917Z,98729.06
2022-12-08T04:24:18.651Z,98724.06
2022-12-08T04:25:20.150Z,98721.91
2022-12-08T04:26:21.646Z,98730.66
2022-12-08T04:27:23.178Z,98728.81
2022-12-08T04:28:24.754Z,98733.09
2022-12-08T04:29:26.240Z,98733.00
2022-12-08T04:30:27.821Z,98737.28
2022-12-08T04:31:29.463Z,98732.75
2022-12-08T04:32:31.027Z,98733.69
2022-12-08T04:33:32.556Z,98730.34
2022-12-08T04:34:34.018Z,98732.34
2022-12-08T04:35:35.655Z,98732.81
2022-12-08T04:36:37.163Z,98724.88
2022-12-08T04:37:38.681Z,98729.81
2022-12-08T04:38:40.188Z,98729.72
2022-12-08T04:39:41.703Z,98729.06
2022-12-08T04:40:43.357Z,98732.66
2022-12-08T04:41:44.852Z,98732.66
2022-12-08T04:42:46.448Z,98728.13
2022-12-08T04:43:47.973Z,98733.00
2022-12-08T04:44:49.475Z,98732.56
2022-12-08T04:45:51.001Z,98725.66
2022-12-08T04:46:52.507Z,98736.75
2022-12-08T04:47:54.078Z,98732.50
2022-12-08T04:48:55.588Z,98733.56
2022-12-08T04:49:57.138Z,98732.75
2022-12-08T04:50:58.623Z,98731.16
2022-12-08T04:52:00.133Z,98732.75
2022-12-08T04:53:01.629Z,98725.97
2022-12-08T04:54:03.208Z,98737.28
2022-12-08T04:55:05.305Z,98728.56
2022-12-08T04:56:11.856Z,98729.31
2022-12-08T04:57:13.524Z,98720.97
2022-12-08T04:58:17.887Z,98720.63
2022-12-08T04:59:19.418Z,98723.31
2022-12-08T05:00:20.969Z,98737.19
2022-12-08T05:01:22.587Z,98733.50
2022-12-08T05:02:24.219Z,98732.50
2022-12-08T05:03:28.665Z,98725.47
2022-12-08T05:04:30.441Z,98728.06
2022-12-08T05:05:31.944Z,98727.88
2022-12-08T05:06:33.413Z,98733.00
2022-12-08T05:07:34.911Z,98730.66
2022-12-08T05:08:36.396Z,98731.47
2022-12-08T05:09:37.901Z,98728.13
2022-12-08T05:10:39.645Z,98728.88
2022-12-08T05:11:45.397Z,98730.47
2022-12-08T05:12:50.261Z,98728.97
2022-12-08T05:13:51.820Z,98725.28
2022-12-08T05:14:53.313Z,98727.69
2022-12-08T05:15:54.858Z,98735.59
2022-12-08T05:16:56.411Z,98739.09
2022-12-08T05:17:57.979Z,98732.06
2022-12-08T05:18:59.486Z,98736.41
2022-12-08T05:20:01.219Z,98733.00
2022-12-08T05:21:03.859Z,98731.06
2022-12-08T05:22:05.407Z,98733.22
2022-12-08T05:23:06.904Z,98732.56
2022-12-08T05:24:08.601Z,98729.22
2022-12-08T05:25:10.154Z,98731.97
2022-12-08T05:26:11.685Z,98731.13
2022-12-08T05:27:13.177Z,98733.00
2022-12-08T05:28:40.117Z,98731.31
2022-12-08T05:29:36.278Z,98730.13
2022-12-08T05:30:37.826Z,98730.13
2022-12-08T05:31:39.369Z,98726.50
2022-12-08T05:32:41.024Z,98727.28
2022-12-08T05:33:44.024Z,98723.19
2022-12-08T05:34:45.538Z,98725.69
2022-12-08T05:35:47.054Z,98729.28
2022-12-08T05:36:48.631Z,98719.84
2022-12-08T05:37:50.152Z,98724.19
2022-12-08T05:38:51.655Z,98724.69
2022-12-08T05:39:53.145Z,98719.78
2022-12-08T05:40:54.662Z,98722.50
2022-12-08T05:41:56.142Z,98721.88
2022-12-08T05:42:57.620Z,98721.38
2022-12-08T05:43:59.137Z,98721.38
2022-12-08T05:45:00.655Z,98724.72
2022-12-08T05:46:02.498Z,98720.94
2022-12-08T05:47:04.154Z,98717.75
2022-12-08T05:48:05.709Z,98721.88
2022-12-08T05:49:07.226Z,98726.22
2022-12-08T05:50:09.032Z,98721.78
2022-12-08T05:51:18.793Z,98728.38
2022-12-08T05:52:20.331Z,98727.44
2022-12-08T05:53:21.819Z,98723.38
2022-12-08T05:54:23.321Z,98717.34
2022-12-08T05:55:24.832Z,98713.91
2022-12-08T05:56:26.332Z,98712.91
2022-12-08T05:57:27.965Z,98717.50
2022-12-08T05:58:29.501Z,98723.53
2022-12-08T05:59:31.062Z,98715.78
2022-12-08T06:00:32.739Z,98723.69
2022-12-08T06:01:34.684Z,98720.94
2022-12-08T06:02:36.472Z,98723.44
2022-12-08T06:03:38.160Z,98726.03
2022-12-08T06:04:39.928Z,98724.03
2022-12-08T06:05:42.454Z,98729.88
2022-12-08T06:06:43.978Z,98725.59
2022-12-08T06:07:45.555Z,98722.19
2022-12-08T06:08:47.318Z,98729.22
2022-12-08T06:09:48.852Z,98720.59
2022-12-08T06:10:50.525Z,98727.38
2022-12-08T06:11:52.029Z,98728.84
2022-12-08T06:12:53.564Z,98728.78
2022-12-08T06:13:56.088Z,98730.25
2022-12-08T06:14:57.591Z,98731.94
2022-12-08T06:16:06.584Z,98733.84
2022-12-08T06:17:08.205Z,98733.78
2022-12-08T06:18:10.612Z,98732.78
2022-12-08T06:19:12.143Z,98735.38
2022-12-08T06:20:13.685Z,98736.19
2022-12-08T06:21:17.185Z,98736.38
2022-12-08T06:22:18.697Z,98733.97
2022-12-08T06:23:20.178Z,98726.06
2022-12-08T06:24:21.729Z,98731.19
2022-12-08T06:25:23.940Z,98735.81
2022-12-08T06:26:25.556Z,98735.69
2022-12-08T06:27:27.073Z,98738.78
2022-12-08T06:28:29.970Z,98731.09
2022-12-08T06:29:31.473Z,98733.69
2022-12-08T06:30:33.115Z,98738.28
2022-12-08T06:31:34.696Z,98739.88
2022-12-08T06:32:36.530Z,98732.03
2022-12-08T06:33:38.518Z,98742.22
2022-12-08T06:34:40.018Z,98733.59
2022-12-08T06:35:41.583Z,98736.19
2022-12-08T06:36:43.098Z,98733.69
2022-12-08T06:37:44.608Z,98734.38
2022-12-08T06:38:46.834Z,98738.69
2022-12-08T06:39:48.337Z,98736.13
2022-12-08T06:40:56.665Z,98736.06
2022-12-08T06:41:58.199Z,98738.56
2022-12-08T06:42:59.718Z,98735.97
2022-12-08T06:44:01.225Z,98740.06
2022-12-08T06:45:02.919Z,98737.47
2022-12-08T06:46:06.624Z,98751.94
2022-12-08T06:47:08.230Z,98746.75
2022-12-08T06:48:09.782Z,98745.00
2022-12-08T06:49:11.297Z,98746.56
2022-12-08T06:50:13.478Z,98749.06
2022-12-08T06:51:18.124Z,98744.06
2022-12-08T06:52:19.636Z,98742.28
2022-12-08T06:53:21.161Z,98742.16
2022-12-08T06:54:22.675Z,98748.88
2022-12-08T06:55:57.255Z,98743.81
2022-12-08T06:56:45.681Z,98746.22
2022-12-08T06:57:47.221Z,98746.88
2022-12-08T06:58:52.541Z,98747.63
2022-12-08T06:59:54.420Z,98739.75
2022-12-08T07:00:56.008Z,98750.09
2022-12-08T07:01:57.701Z,98745.69
2022-12-08T07:02:59.322Z,98746.25
2022-12-08T07:04:00.850Z,98742.91
2022-12-08T07:05:02.378Z,98743.41
2022-12-08T07:06:04.838Z,98748.13
2022-12-08T07:07:06.415Z,98742.09
2022-12-08T07:08:09.153Z,98748.06
2022-12-08T07:09:10.726Z,98746.09
2022-12-08T07:10:12.272Z,98750.28
2022-12-08T07:11:19.638Z,98748.41
2022-12-08T07:12:22.897Z,98743.53
2022-12-08T07:13:24.401Z,98749.47
2022-12-08T07:14:26.009Z,98751.59
2022-12-08T07:15:27.687Z,98747.16
2022-12-08T07:16:29.270Z,98741.59
2022-12-08T07:17:30.873Z,98746.53
2022-12-08T07:18:32.369Z,98747.44
2022-12-08T07:19:33.928Z,98744.41
2022-12-08T07:20:35.626Z,98744.06
2022-12-08T07:21:37.157Z,98744.97
2022-12-08T07:22:38.657Z,98745.56
2022-12-08T07:23:40.571Z,98748.78
2022-12-08T07:24:42.120Z,98755.56
2022-12-08T07:25:43.643Z,98743.59
2022-12-08T07:26:45.127Z,98746.84
2022-12-08T07:27:46.908Z,98748.22
2022-12-08T07:28:48.507Z,98750.72
2022-12-08T07:29:50.017Z,98748.13
2022-12-08T07:30:51.585Z,98755.09
2022-12-08T07:31:53.122Z,98751.66
2022-12-08T07:32:54.654Z,98749.25
2022-12-08T07:33:57.141Z,98752.59
2022-12-08T07:34:58.637Z,98757.13
2022-12-08T07:36:02.670Z,98753.72
2022-12-08T07:37:04.284Z,98759.28
2022-12-08T07:38:05.828Z,98758.25
2022-12-08T07:39:07.455Z,98754.44
2022-12-08T07:40:09.810Z,98757.56
2022-12-08T07:41:13.108Z,98747.19
2022-12-08T07:42:14.650Z,98758.22
2022-12-08T07:43:22.342Z,98752.66
2022-12-08T07:44:24.449Z,98761.06
2022-12-08T07:45:31.485Z,98758.38
2022-12-08T07:46:33.342Z,98759.41
2022-12-08T07:47:34.911Z,98758.38
2022-12-08T07:48:36.388Z,98759.13
2022-12-08T07:49:37.899Z,98760.06
2022-12-08T07:50:39.821Z,98760.16
2022-12-08T07:51:41.358Z,98758.47
2022-12-08T07:52:42.853Z,98764.53
2022-12-08T07:53:53.150Z,98760.63
2022-12-08T07:54:55.538Z,98768.53
2022-12-08T07:55:56.948Z,98767.59
2022-12-08T07:56:58.569Z,98767.59
2022-12-08T07:58:00.127Z,98764.16
2022-12-08T07:59:01.631Z,98772.06
2022-12-08T08:00:04.986Z,98776.69
2022-12-08T08:01:28.716Z,98771.63
2022-12-08T08:02:30.448Z,98770.41
2022-12-08T08:03:33.006Z,98776.41
2022-12-08T08:04:34.581Z,98767.81
2022-12-08T08:05:36.114Z,98780.97
2022-12-08T08:06:37.627Z,98773.38
2022-12-08T08:07:41.003Z,98775.22
2022-12-08T08:08:42.581Z,98770.78
2022-12-08T08:09:44.071Z,98766.72
2022-12-08T08:10:46.411Z,98771.28
2022-12-08T08:12:07.237Z,98761.41
2022-12-08T08:13:09.608Z,98759.56
2022-12-08T08:14:11.435Z,98761.63
2022-12-08T08:15:13.082Z,98756.63
2022-12-08T08:16:14.764Z,98753.56
2022-12-08T08:17:16.499Z,98751.59
2022-12-08T08:18:18.149Z,98756.16
2022-12-08T08:19:19.696Z,98758.84
2022-12-08T08:20:22.070Z,98757.63
2022-12-08T08:22:46.504Z,98760.78
2022-12-08T08:23:48.174Z,98760.91
2022-12-08T08:24:49.679Z,98760.69
2022-12-08T08:25:51.202Z,98757.91
2022-12-08T08:26:52.745Z,98766.44
2022-12-08T08:27:55.043Z,98757.91
2022-12-08T08:28:56.607Z,98765.69
2022-12-08T08:29:58.143Z,98767.28
2022-12-08T08:31:00.925Z,98766.63
2022-12-08T08:32:02.603Z,98770.44
2022-12-08T08:33:04.153Z,98763.19
2022-12-08T08:34:05.838Z,98772.66
2022-12-08T08:35:08.706Z,98763.03
2022-12-08T08:36:10.643Z,98775.28
2022-12-08T08:37:12.270Z,98766.53
2022-12-08T08:38:13.814Z,98773.13
2022-12-08T08:39:15.354Z,98766.06
2022-12-08T08:40:18.037Z,98771.00
2022-12-08T08:41:19.545Z,98767.53
2022-12-08T08:42:21.140Z,98775.44
2022-12-08T08:43:22.679Z,98772.75
2022-12-08T08:44:24.191Z,98776.00
2022-12-08T08:45:25.702Z,98773.59
2022-12-08T08:46:27.313Z,98774.53
2022-12-08T08:47:28.853Z,98772.84
2022-12-08T08:48:31.487Z,98778.66
2022-12-08T08:49:33.082Z,98776.72
2022-12-08T08:50:37.752Z,98775.50
2022-12-08T08:51:39.487Z,98773.19
2022-12-08T08:52:40.984Z,98775.06
2022-12-08T08:53:42.791Z,98782.50
2022-12-08T08:54:44.280Z,98777.19
2022-12-08T08:55:46.409Z,98777.38
2022-12-08T08:56:47.937Z,98780.72
2022-12-08T08:57:49.456Z,98782.50
2022-12-08T08:58:52.639Z,98779.03
2022-12-08T08:59:54.510Z,98786.75
2022-12-08T09:00:56.006Z,98779.41
2022-12-08T09:01:57.741Z,98777.44
2022-12-08T09:02:59.361Z,98777.56
2022-12-08T09:04:01.060Z,98764.34
2022-12-08T09:05:03.607Z,98775.78
2022-12-08T09:06:05.367Z,98767.69
2022-12-08T09:07:06.881Z,98767.41
2022-12-08T09:08:08.677Z,98767.13
2022-12-08T09:09:10.471Z,98758.38
2022-12-08T09:10:11.985Z,98757.38
2022-12-08T09:11:13.582Z,98758.19
2022-12-08T09:12:15.262Z,98756.31
2022-12-08T09:13:16.838Z,98756.22
2022-12-08T09:14:18.348Z,98756.16
2022-12-08T09:15:19.988Z,98753.72
2022-12-08T09:16:22.228Z,98757.91
2022-12-08T09:17:23.770Z,98760.50
2022-12-08T09:18:25.298Z,98760.28
2022-12-08T09:19:26.830Z,98758.53
2022-12-08T09:20:28.413Z,98757.09
2022-12-08T09:21:30.128Z,98759.69
2022-12-08T09:22:31.667Z,98752.41
2022-12-08T09:23:35.611Z,98753.25
2022-12-08T09:24:37.663Z,98750.00
2022-12-08T09:25:39.175Z,98749.81
2022-12-08T09:26:41.089Z,98758.25
2022-12-08T09:27:42.651Z,98747.84
2022-12-08T09:28:44.217Z,98751.59
2022-12-08T09:29:45.795Z,98749.91
2022-12-08T09:30:47.462Z,98752.31
2022-12-08T09:31:49.153Z,98746.91
2022-12-08T09:32:50.859Z,98747.56
2022-12-08T09:33:52.771Z,98742.44
2022-12-08T09:34:55.647Z,98746.28
2022-12-08T09:36:01.506Z,98745.47
2022-12-08T09:37:03.043Z,98739.13
2022-12-08T09:38:04.644Z,98742.38
2022-12-08T09:39:06.263Z,98743.09
2022-12-08T09:40:15.128Z,98734.84
2022-12-08T09:41:44.895Z,98737.94
2022-12-08T09:43:18.066Z,98733.41
2022-12-08T09:44:44.224Z,98726.22
2022-12-08T09:45:47.671Z,98726.41
2022-12-08T09:46:52.781Z,98718.22
2022-12-08T09:47:59.356Z,98715.50
2022-12-08T09:49:02.566Z,98709.72
2022-12-08T09:50:12.757Z,98714.03
2022-12-08T09:51:15.504Z,98709.13
2022-12-08T09:52:26.360Z,98703.75
2022-12-08T09:53:59.469Z,98706.88
2022-12-08T09:55:04.381Z,98705.22
2022-12-08T09:56:05.841Z,98709.38
2022-12-08T09:57:11.927Z,98708.84
2022-12-08T09:58:44.268Z,98713.00
2022-12-08T09:59:53.408Z,98711.34
2022-12-08T10:00:55.116Z,98711.66
2022-12-08T10:01:56.990Z,98716.56
2022-12-08T10:02:58.587Z,98719.25
2022-12-08T10:04:01.535Z,98721.75
2022-12-08T10:05:03.357Z,98713.66
2022-12-08T10:06:19.554Z,98720.09
2022-12-08T10:07:41.371Z,98715.75
2022-12-08T10:09:12.788Z,98707.72
2022-12-08T10:10:33.921Z,98707.63
2022-12-08T10:12:00.309Z,98713.78
2022-12-08T10:13:16.893Z,98712.41
2022-12-08T10:14:43.117Z,98709.38
2022-12-08T10:16:03.501Z,98712.16
2022-12-08T10:17:15.466Z,98713.97
2022-12-08T10:18:20.566Z,98709.38
2022-12-08T10:19:25.137Z,98712.16
2022-12-08T10:20:36.300Z,98708.75
2022-12-08T10:21:39.682Z,98710.72
2022-12-08T10:22:44.654Z,98718.09
2022-12-08T10:23:51.210Z,98716.94
2022-12-08T10:25:17.672Z,98716.13
2022-12-08T10:26:21.018Z,98710.00
2022-12-08T10:27:23.372Z,98715.06
2022-12-08T10:28:24.915Z,98714.25
2022-12-08T10:29:26.383Z,98720.28
2022-12-08T10:30:27.927Z,98712.28
2022-12-08T10:31:31.293Z,98712.06
2022-12-08T10:32:35.854Z,98706.78
2022-12-08T10:33:37.380Z,98713.09
2022-12-08T10:35:08.291Z,98712.59
2022-12-08T10:36:10.694Z,98713.53
2022-12-08T10:37:15.228Z,98711.94
2022-12-08T10:38:17.751Z,98715.50
2022-12-08T10:39:35.796Z,98709.78
2022-12-08T10:40:42.330Z,98710.38
2022-12-08T10:41:47.073Z,98701.63
2022-12-08T10:42:56.383Z,98701.31
2022-12-08T10:44:01.477Z,98696.75
2022-12-08T10:45:08.716Z,98706.13
2022-12-08T10:46:11.877Z,98700.19
2022-12-08T10:47:14.115Z,98699.38
2022-12-08T10:48:21.114Z,98699.13
2022-12-08T10:49:30.121Z,98700.34
2022-12-08T10:50:33.451Z,98692.47
2022-12-08T10:51:34.883Z,98698.31
2022-12-08T10:52:40.148Z,98688.91
2022-12-08T10:53:46.326Z,98696.81
2022-12-08T10:54:52.579Z,98691.09
2022-12-08T10:56:07.738Z,98690.66
2022-12-08T10:57:21.185Z,98696.16
2022-12-08T10:58:36.428Z,98688.25
2022-12-08T10:59:42.155Z,98689.09
2022-12-08T11:00:43.849Z,98685.47
2022-12-08T11:01:48.397Z,98687.41
2022-12-08T11:03:02.461Z,98689.38
2022-12-08T11:04:06.139Z,98685.66
2022-12-08T11:05:16.479Z,98688.16
2022-12-08T11:06:30.269Z,98684.59
2022-12-08T11:07:31.878Z,98683.88
2022-12-08T11:08:33.511Z,98686.59
2022-12-08T11:09:43.584Z,98682.06
2022-12-08T11:10:45.464Z,98683.09
2022-12-08T11:12:08.745Z,98682.94
2022-12-08T11:13:19.607Z,98683.44
2022-12-08T11:14:42.794Z,98685.53
2022-12-08T11:15:46.449Z,98682.13
2022-12-08T11:16:49.939Z,98680.47
2022-12-08T11:18:01.233Z,98684.72
2022-12-08T11:19:05.130Z,98675.28
2022-12-08T11:20:09.708Z,98679.72
2022-12-08T11:21:16.948Z,98673.78
2022-12-08T11:22:23.890Z,98667.25
2022-12-08T11:23:27.174Z,98671.63
2022-12-08T11:24:31.187Z,98670.78
2022-12-08T11:25:36.216Z,98660.59
2022-12-08T11:26:38.316Z,98673.59
2022-12-08T11:27:46.133Z,98664.53
2022-12-08T11:28:47.643Z,98664.72
2022-12-08T11:29:49.269Z,98664.72
2022-12-08T11:31:13.503Z,98661.06
2022-12-08T11:32:15.075Z,98659.13
2022-12-08T11:33:23.048Z,98670.66
2022-12-08T11:34:41.923Z,98666.41
2022-12-08T11:35:47.406Z,98666.47
2022-12-08T11:36:51.087Z,98661.28
2022-12-08T11:38:07.838Z,98659.09
2022-12-08T11:39:17.336Z,98661.56
2022-12-08T11:40:24.701Z,98662.84
2022-12-08T11:41:37.699Z,98658.81
2022-12-08T11:43:06.735Z,98661.50
2022-12-08T11:44:40.506Z,98656.38
2022-12-08T11:45:42.400Z,98659.91
2022-12-08T11:46:52.014Z,98657.31
2022-12-08T11:48:02.522Z,98660.84
2022-12-08T11:49:10.453Z,98657.44
2022-12-08T11:50:29.470Z,98656.09
2022-12-08T11:51:43.676Z,98656.09
2022-12-08T11:52:48.201Z,98664.09
2022-12-08T11:53:49.714Z,98653.06
2022-12-08T11:55:32.293Z,98656.50
2022-12-08T11:56:40.212Z,98652.13
2022-12-08T11:57:41.826Z,98663.88
2022-12-08T11:58:51.946Z,98655.44
2022-12-08T11:59:56.734Z,98649.44
2022-12-08T12:00:58.254Z,98653.78
2022-12-08T12:02:01.586Z,98645.47
2022-12-08T12:03:18.939Z,98649.28
2022-12-08T12:04:29.546Z,98649.56
2022-12-08T12:06:08.678Z,98648.66
2022-12-08T12:07:21.675Z,98648.72
2022-12-08T12:08:35.134Z,98657.88
2022-12-08T12:10:13.656Z,98651.53
2022-12-08T12:11:36.357Z,98655.28
2022-12-08T12:12:49.769Z,98656.00
2022-12-08T12:14:11.556Z,98650.44
2022-12-08T12:15:31.534Z,98647.03
2022-12-08T12:16:48.291Z,98649.84
2022-12-08T12:17:59.586Z,98649.00
2022-12-08T12:19:11.978Z,98648.16
2022-12-08T12:20:23.860Z,98639.25
2022-12-08T12:21:48.376Z,98646.00
2022-12-08T12:22:56.487Z,98638.88
2022-12-08T12:24:04.820Z,98648.25
2022-12-08T12:25:18.126Z,98642.22
2022-12-08T12:26:31.770Z,98631.81
2022-12-08T12:27:40.343Z,98642.22
2022-12-08T12:28:48.102Z,98639.63
2022-12-08T12:29:56.251Z,98645.00
2022-12-08T12:31:02.747Z,98635.56
2022-12-08T12:32:10.160Z,98637.22
2022-12-08T12:33:15.237Z,98638.16
2022-12-08T12:34:21.735Z,98630.34
2022-12-08T12:35:34.408Z,98636.41
2022-12-08T12:37:08.832Z,98629.06
2022-12-08T12:38:32.021Z,98636.00
2022-12-08T12:39:47.537Z,98643.88
2022-12-08T12:40:49.085Z,98637.56
2022-12-08T12:41:57.993Z,98638.31
2022-12-08T12:43:02.224Z,98634.97
2022-12-08T12:44:23.361Z,98636.63
2022-12-08T12:45:29.223Z,98631.66
2022-12-08T12:46:36.901Z,98629.97
2022-12-08T12:47:57.548Z,98623.28